< < Back
Terminal Aerodrome Forecast


Current Version              Previous Versions:   1  2  3  4  5  6  7  8  9  

Terminal Aerodrome Forecast

696
FTUS42 KMLB 310252 AAA
TAFMCO
TAF AMD
KMCO 310252Z 3103/3124 17004KT P6SM FEW090 BKN250
     FM310600 15003KT P6SM SCT250
     FM311500 16005KT P6SM SCT030 SCT050
     FM312000 13008KT P6SM VCTS SCT050CB=

Latest METAR

835
SAUS70 KWBC 310300 RRG
MTRMCO
METAR KMCO 310253Z 00000KT 10SM FEW030 BKN250 25/22 A3009 RMK AO2 SLP186
T02500217 53015


USA.gov is the U.S. government's official web portal to all federal, state and local government web resources and services.